sensor_id;sensor_type;location;lat;lon;timestamp;temperature;humidity
7512;DHT22;9999;48.780;9.146;2023-07-08T00:02:00;21.60;58.00
7512;DHT22;9999;48.780;9.146;2023-07-08T00:04:26;21.60;58.70
7512;DHT22;9999;48.780;9.146;2023-07-08T00:06:53;21.60;59.00
7512;DHT22;9999;48.780;9.146;2023-07-08T00:09:20;21.70;55.60
7512;DHT22;9999;48.780;9.146;2023-07-08T00:11:47;21.90;54.20
7512;DHT22;9999;48.780;9.146;2023-07-08T00:14:13;22.00;55.60
7512;DHT22;9999;48.780;9.146;2023-07-08T00:16:40;22.00;55.80
7512;DHT22;9999;48.780;9.146;2023-07-08T00:19:11;22.00;54.70
7512;DHT22;9999;48.780;9.146;2023-07-08T00:21:38;22.00;55.30
7512;DHT22;9999;48.780;9.146;2023-07-08T00:24:05;22.00;56.50
7512;DHT22;9999;48.780;9.146;2023-07-08T00:26:32;21.90;56.70
7512;DHT22;9999;48.780;9.146;2023-07-08T00:28:59;21.90;57.70
7512;DHT22;9999;48.780;9.146;2023-07-08T00:31:26;21.80;56.90
7512;DHT22;9999;48.780;9.146;2023-07-08T00:33:54;21.80;57.10
7512;DHT22;9999;48.780;9.146;2023-07-08T00:36:25;21.80;56.10
7512;DHT22;9999;48.780;9.146;2023-07-08T00:38:52;21.90;55.90
7512;DHT22;9999;48.780;9.146;2023-07-08T00:41:22;21.90;55.20
7512;DHT22;9999;48.780;9.146;2023-07-08T00:43:54;21.90;55.40
7512;DHT22;9999;48.780;9.146;2023-07-08T00:46:46;21.90;56.00
7512;DHT22;9999;48.780;9.146;2023-07-08T00:49:29;21.90;56.20
7512;DHT22;9999;48.780;9.146;2023-07-08T00:52:19;21.80;57.30
7512;DHT22;9999;48.780;9.146;2023-07-08T00:54:50;21.70;56.70
7512;DHT22;9999;48.780;9.146;2023-07-08T00:57:17;21.80;56.80
7512;DHT22;9999;48.780;9.146;2023-07-08T00:59:47;21.70;58.40
7512;DHT22;9999;48.780;9.146;2023-07-08T01:02:16;21.60;58.40
7512;DHT22;9999;48.780;9.146;2023-07-08T01:04:51;21.60;57.90
7512;DHT22;9999;48.780;9.146;2023-07-08T01:07:21;21.60;58.20
7512;DHT22;9999;48.780;9.146;2023-07-08T01:09:52;21.50;58.10
7512;DHT22;9999;48.780;9.146;2023-07-08T01:12:23;21.40;60.20
7512;DHT22;9999;48.780;9.146;2023-07-08T01:14:51;21.20;59.80
7512;DHT22;9999;48.780;9.146;2023-07-08T01:17:20;21.20;59.10
7512;DHT22;9999;48.780;9.146;2023-07-08T01:19:48;21.20;61.10
7512;DHT22;9999;48.780;9.146;2023-07-08T01:22:18;21.10;61.30
7512;DHT22;9999;48.780;9.146;2023-07-08T01:24:46;21.10;63.10
7512;DHT22;9999;48.780;9.146;2023-07-08T01:27:15;21.10;60.70
7512;DHT22;9999;48.780;9.146;2023-07-08T01:29:43;21.00;61.90
7512;DHT22;9999;48.780;9.146;2023-07-08T01:32:13;21.00;61.10
7512;DHT22;9999;48.780;9.146;2023-07-08T01:34:44;20.90;60.90
7512;DHT22;9999;48.780;9.146;2023-07-08T01:37:30;20.80;62.60
7512;DHT22;9999;48.780;9.146;2023-07-08T01:39:57;20.80;62.90
7512;DHT22;9999;48.780;9.146;2023-07-08T01:42:24;20.80;62.90
7512;DHT22;9999;48.780;9.146;2023-07-08T01:44:51;20.90;63.40
7512;DHT22;9999;48.780;9.146;2023-07-08T01:47:20;20.90;63.80
7512;DHT22;9999;48.780;9.146;2023-07-08T01:49:48;20.90;60.70
7512;DHT22;9999;48.780;9.146;2023-07-08T01:52:16;20.70;60.00
7512;DHT22;9999;48.780;9.146;2023-07-08T01:54:45;20.60;62.30
7512;DHT22;9999;48.780;9.146;2023-07-08T01:57:16;20.50;61.10
7512;DHT22;9999;48.780;9.146;2023-07-08T01:59:43;20.60;61.00
7512;DHT22;9999;48.780;9.146;2023-07-08T02:02:11;20.50;61.10
7512;DHT22;9999;48.780;9.146;2023-07-08T02:04:38;20.50;60.90
7512;DHT22;9999;48.780;9.146;2023-07-08T02:07:05;20.50;61.90
7512;DHT22;9999;48.780;9.146;2023-07-08T02:09:31;20.50;61.10
7512;DHT22;9999;48.780;9.146;2023-07-08T02:11:59;20.50;63.20
7512;DHT22;9999;48.780;9.146;2023-07-08T02:14:26;20.30;62.40
7512;DHT22;9999;48.780;9.146;2023-07-08T02:16:53;20.40;63.70
7512;DHT22;9999;48.780;9.146;2023-07-08T02:19:20;20.40;63.10
7512;DHT22;9999;48.780;9.146;2023-07-08T02:21:47;20.50;63.20
7512;DHT22;9999;48.780;9.146;2023-07-08T02:24:14;20.40;63.20
7512;DHT22;9999;48.780;9.146;2023-07-08T02:26:42;20.40;64.20
7512;DHT22;9999;48.780;9.146;2023-07-08T02:29:11;20.40;64.90
7512;DHT22;9999;48.780;9.146;2023-07-08T02:31:37;20.30;63.70
7512;DHT22;9999;48.780;9.146;2023-07-08T02:34:04;20.20;64.30
7512;DHT22;9999;48.780;9.146;2023-07-08T02:36:34;20.20;65.30
7512;DHT22;9999;48.780;9.146;2023-07-08T02:39:01;20.20;63.40
7512;DHT22;9999;48.780;9.146;2023-07-08T02:41:27;20.20;64.90
7512;DHT22;9999;48.780;9.146;2023-07-08T02:43:54;20.20;64.90
7512;DHT22;9999;48.780;9.146;2023-07-08T02:46:22;20.30;64.50
7512;DHT22;9999;48.780;9.146;2023-07-08T02:48:49;20.30;63.10
7512;DHT22;9999;48.780;9.146;2023-07-08T02:51:16;20.30;64.00
7512;DHT22;9999;48.780;9.146;2023-07-08T02:53:43;20.40;63.20
7512;DHT22;9999;48.780;9.146;2023-07-08T02:56:09;20.30;65.20
7512;DHT22;9999;48.780;9.146;2023-07-08T02:58:36;20.30;65.70
7512;DHT22;9999;48.780;9.146;2023-07-08T03:01:03;20.30;65.60
7512;DHT22;9999;48.780;9.146;2023-07-08T03:03:33;20.30;66.00
7512;DHT22;9999;48.780;9.146;2023-07-08T03:06:02;20.30;60.70
7512;DHT22;9999;48.780;9.146;2023-07-08T03:08:29;20.30;62.10
7512;DHT22;9999;48.780;9.146;2023-07-08T03:10:58;20.30;61.10
7512;DHT22;9999;48.780;9.146;2023-07-08T03:13:26;20.40;59.80
7512;DHT22;9999;48.780;9.146;2023-07-08T03:15:55;20.40;61.50
7512;DHT22;9999;48.780;9.146;2023-07-08T03:18:22;20.40;62.60
7512;DHT22;9999;48.780;9.146;2023-07-08T03:20:55;20.30;62.30
7512;DHT22;9999;48.780;9.146;2023-07-08T03:23:24;20.30;64.10
7512;DHT22;9999;48.780;9.146;2023-07-08T03:25:51;20.30;62.50
7512;DHT22;9999;48.780;9.146;2023-07-08T03:28:20;20.30;63.70
7512;DHT22;9999;48.780;9.146;2023-07-08T03:30:51;20.30;64.10
7512;DHT22;9999;48.780;9.146;2023-07-08T03:33:19;20.20;63.10
7512;DHT22;9999;48.780;9.146;2023-07-08T03:35:46;20.30;62.40
7512;DHT22;9999;48.780;9.146;2023-07-08T03:38:15;20.30;63.90
7512;DHT22;9999;48.780;9.146;2023-07-08T03:40:41;20.30;65.50
7512;DHT22;9999;48.780;9.146;2023-07-08T03:43:09;20.30;65.00
7512;DHT22;9999;48.780;9.146;2023-07-08T03:45:37;20.40;66.40
7512;DHT22;9999;48.780;9.146;2023-07-08T03:48:05;20.30;65.00
7512;DHT22;9999;48.780;9.146;2023-07-08T03:50:32;20.30;65.10
7512;DHT22;9999;48.780;9.146;2023-07-08T03:52:59;20.30;66.00
7512;DHT22;9999;48.780;9.146;2023-07-08T03:55:30;20.10;66.30
7512;DHT22;9999;48.780;9.146;2023-07-08T03:57:58;20.10;66.80
7512;DHT22;9999;48.780;9.146;2023-07-08T04:00:27;20.10;68.50
7512;DHT22;9999;48.780;9.146;2023-07-08T04:02:57;20.20;68.50
7512;DHT22;9999;48.780;9.146;2023-07-08T04:05:23;20.10;70.20
7512;DHT22;9999;48.780;9.146;2023-07-08T04:07:50;20.20;67.90
7512;DHT22;9999;48.780;9.146;2023-07-08T04:10:17;20.10;67.40
7512;DHT22;9999;48.780;9.146;2023-07-08T04:12:45;20.20;67.80
7512;DHT22;9999;48.780;9.146;2023-07-08T04:15:12;20.30;69.00
7512;DHT22;9999;48.780;9.146;2023-07-08T04:17:42;20.30;70.80
7512;DHT22;9999;48.780;9.146;2023-07-08T04:20:12;20.30;74.00
7512;DHT22;9999;48.780;9.146;2023-07-08T04:22:39;20.10;72.10
7512;DHT22;9999;48.780;9.146;2023-07-08T04:25:07;20.20;74.10
7512;DHT22;9999;48.780;9.146;2023-07-08T04:27:33;20.20;75.30
7512;DHT22;9999;48.780;9.146;2023-07-08T04:30:02;20.10;75.20
7512;DHT22;9999;48.780;9.146;2023-07-08T04:32:30;20.20;75.30
7512;DHT22;9999;48.780;9.146;2023-07-08T04:34:58;20.10;73.70
7512;DHT22;9999;48.780;9.146;2023-07-08T04:37:25;20.10;77.60
7512;DHT22;9999;48.780;9.146;2023-07-08T04:39:52;20.10;79.10
7512;DHT22;9999;48.780;9.146;2023-07-08T04:42:18;20.20;80.30
7512;DHT22;9999;48.780;9.146;2023-07-08T04:44:45;20.30;79.80
7512;DHT22;9999;48.780;9.146;2023-07-08T04:47:16;20.30;80.50
7512;DHT22;9999;48.780;9.146;2023-07-08T04:49:45;20.20;81.30
7512;DHT22;9999;48.780;9.146;2023-07-08T04:52:12;20.30;81.80
7512;DHT22;9999;48.780;9.146;2023-07-08T04:54:39;20.30;81.30
7512;DHT22;9999;48.780;9.146;2023-07-08T04:57:06;20.30;79.40
7512;DHT22;9999;48.780;9.146;2023-07-08T04:59:33;20.30;82.10
7512;DHT22;9999;48.780;9.146;2023-07-08T05:02:00;20.30;83.90
7512;DHT22;9999;48.780;9.146;2023-07-08T05:04:28;20.30;85.90
7512;DHT22;9999;48.780;9.146;2023-07-08T05:06:55;20.30;87.80
7512;DHT22;9999;48.780;9.146;2023-07-08T05:09:22;20.30;86.00
7512;DHT22;9999;48.780;9.146;2023-07-08T05:11:51;20.30;87.80
7512;DHT22;9999;48.780;9.146;2023-07-08T05:14:18;20.20;85.10
7512;DHT22;9999;48.780;9.146;2023-07-08T05:16:45;20.20;84.70
7512;DHT22;9999;48.780;9.146;2023-07-08T05:19:12;20.20;85.40
7512;DHT22;9999;48.780;9.146;2023-07-08T05:21:40;20.30;83.00
7512;DHT22;9999;48.780;9.146;2023-07-08T05:24:08;20.50;82.20
7512;DHT22;9999;48.780;9.146;2023-07-08T05:26:35;20.60;80.20
7512;DHT22;9999;48.780;9.146;2023-07-08T05:29:02;20.80;79.80
7512;DHT22;9999;48.780;9.146;2023-07-08T05:31:30;20.90;81.30
7512;DHT22;9999;48.780;9.146;2023-07-08T05:33:57;21.10;80.90
7512;DHT22;9999;48.780;9.146;2023-07-08T05:36:24;21.20;80.80
7512;DHT22;9999;48.780;9.146;2023-07-08T05:38:52;21.40;77.00
7512;DHT22;9999;48.780;9.146;2023-07-08T05:41:18;21.50;77.80
7512;DHT22;9999;48.780;9.146;2023-07-08T05:43:45;21.50;77.70
7512;DHT22;9999;48.780;9.146;2023-07-08T05:46:12;21.60;79.10
7512;DHT22;9999;48.780;9.146;2023-07-08T05:48:39;21.70;77.80
7512;DHT22;9999;48.780;9.146;2023-07-08T05:51:05;21.80;73.40
7512;DHT22;9999;48.780;9.146;2023-07-08T05:53:32;21.90;75.90
7512;DHT22;9999;48.780;9.146;2023-07-08T05:56:02;22.00;71.50
7512;DHT22;9999;48.780;9.146;2023-07-08T05:58:29;22.00;73.80
7512;DHT22;9999;48.780;9.146;2023-07-08T06:00:57;22.10;75.20
7512;DHT22;9999;48.780;9.146;2023-07-08T06:03:25;22.10;76.20
7512;DHT22;9999;48.780;9.146;2023-07-08T06:05:52;22.20;72.60
7512;DHT22;9999;48.780;9.146;2023-07-08T06:08:19;22.30;74.70
7512;DHT22;9999;48.780;9.146;2023-07-08T06:10:45;22.30;72.40
7512;DHT22;9999;48.780;9.146;2023-07-08T06:13:14;22.30;73.00
7512;DHT22;9999;48.780;9.146;2023-07-08T06:15:41;22.30;76.20
7512;DHT22;9999;48.780;9.146;2023-07-08T06:18:08;22.40;77.30
7512;DHT22;9999;48.780;9.146;2023-07-08T06:20:35;22.50;76.90
7512;DHT22;9999;48.780;9.146;2023-07-08T06:23:01;22.70;75.40
7512;DHT22;9999;48.780;9.146;2023-07-08T06:25:28;22.80;75.30
7512;DHT22;9999;48.780;9.146;2023-07-08T06:27:55;23.00;73.40
7512;DHT22;9999;48.780;9.146;2023-07-08T06:30:23;23.00;75.30
7512;DHT22;9999;48.780;9.146;2023-07-08T06:32:50;23.20;76.10
7512;DHT22;9999;48.780;9.146;2023-07-08T06:35:17;23.10;72.30
7512;DHT22;9999;48.780;9.146;2023-07-08T06:37:43;23.10;74.60
7512;DHT22;9999;48.780;9.146;2023-07-08T06:40:11;23.30;72.90
7512;DHT22;9999;48.780;9.146;2023-07-08T06:42:38;23.40;74.60
7512;DHT22;9999;48.780;9.146;2023-07-08T06:45:26;23.30;75.10
7512;DHT22;9999;48.780;9.146;2023-07-08T06:47:53;23.40;73.60
7512;DHT22;9999;48.780;9.146;2023-07-08T06:50:20;23.60;74.90
7512;DHT22;9999;48.780;9.146;2023-07-08T06:52:46;23.80;77.10
7512;DHT22;9999;48.780;9.146;2023-07-08T06:55:13;23.90;76.10
7512;DHT22;9999;48.780;9.146;2023-07-08T06:57:40;24.20;74.10
7512;DHT22;9999;48.780;9.146;2023-07-08T07:00:08;24.30;74.70
7512;DHT22;9999;48.780;9.146;2023-07-08T07:02:37;24.30;75.60
7512;DHT22;9999;48.780;9.146;2023-07-08T07:05:04;24.20;75.50
7512;DHT22;9999;48.780;9.146;2023-07-08T07:07:31;24.20;75.50
7512;DHT22;9999;48.780;9.146;2023-07-08T07:09:59;24.20;76.10
7512;DHT22;9999;48.780;9.146;2023-07-08T07:12:26;24.20;74.90
7512;DHT22;9999;48.780;9.146;2023-07-08T07:14:53;24.10;76.40
7512;DHT22;9999;48.780;9.146;2023-07-08T07:17:20;24.20;77.10
7512;DHT22;9999;48.780;9.146;2023-07-08T07:19:49;24.10;76.00
7512;DHT22;9999;48.780;9.146;2023-07-08T07:22:16;24.00;78.20
7512;DHT22;9999;48.780;9.146;2023-07-08T07:24:43;24.10;77.90
7512;DHT22;9999;48.780;9.146;2023-07-08T07:27:09;24.10;79.20
7512;DHT22;9999;48.780;9.146;2023-07-08T07:29:41;24.10;78.80
7512;DHT22;9999;48.780;9.146;2023-07-08T07:32:09;24.10;79.60
7512;DHT22;9999;48.780;9.146;2023-07-08T07:34:36;24.20;79.60
7512;DHT22;9999;48.780;9.146;2023-07-08T07:37:06;24.20;80.90
7512;DHT22;9999;48.780;9.146;2023-07-08T07:39:33;24.30;78.60
7512;DHT22;9999;48.780;9.146;2023-07-08T07:41:59;24.30;79.30
7512;DHT22;9999;48.780;9.146;2023-07-08T07:44:26;24.30;81.00
7512;DHT22;9999;48.780;9.146;2023-07-08T07:46:53;24.30;82.10
7512;DHT22;9999;48.780;9.146;2023-07-08T07:49:20;24.40;84.10
7512;DHT22;9999;48.780;9.146;2023-07-08T07:51:47;24.40;80.50
7512;DHT22;9999;48.780;9.146;2023-07-08T07:54:16;24.50;83.90
7512;DHT22;9999;48.780;9.146;2023-07-08T07:56:43;24.70;84.00
7512;DHT22;9999;48.780;9.146;2023-07-08T07:59:10;24.80;84.10
7512;DHT22;9999;48.780;9.146;2023-07-08T08:01:37;25.00;80.10
7512;DHT22;9999;48.780;9.146;2023-07-08T08:04:04;25.30;81.90
7512;DHT22;9999;48.780;9.146;2023-07-08T08:06:31;25.90;78.70
7512;DHT22;9999;48.780;9.146;2023-07-08T08:08:57;26.20;74.70
7512;DHT22;9999;48.780;9.146;2023-07-08T08:11:26;26.50;74.90
7512;DHT22;9999;48.780;9.146;2023-07-08T08:13:53;26.80;72.40
7512;DHT22;9999;48.780;9.146;2023-07-08T08:16:20;27.10;70.90
7512;DHT22;9999;48.780;9.146;2023-07-08T08:18:47;27.40;70.40
7512;DHT22;9999;48.780;9.146;2023-07-08T08:21:14;27.40;70.20
7512;DHT22;9999;48.780;9.146;2023-07-08T08:23:41;27.20;69.70
7512;DHT22;9999;48.780;9.146;2023-07-08T08:26:08;27.00;71.30
7512;DHT22;9999;48.780;9.146;2023-07-08T08:28:36;27.00;71.90
7512;DHT22;9999;48.780;9.146;2023-07-08T08:31:03;27.20;70.70
7512;DHT22;9999;48.780;9.146;2023-07-08T08:33:30;27.60;72.40
7512;DHT22;9999;48.780;9.146;2023-07-08T08:35:56;27.90;68.40
7512;DHT22;9999;48.780;9.146;2023-07-08T08:38:23;28.30;68.20
7512;DHT22;9999;48.780;9.146;2023-07-08T08:40:50;28.40;64.30
7512;DHT22;9999;48.780;9.146;2023-07-08T08:43:19;28.40;65.60
7512;DHT22;9999;48.780;9.146;2023-07-08T08:45:50;28.80;65.60
7512;DHT22;9999;48.780;9.146;2023-07-08T08:48:21;28.60;61.90
7512;DHT22;9999;48.780;9.146;2023-07-08T08:50:51;27.90;63.90
7512;DHT22;9999;48.780;9.146;2023-07-08T08:53:20;27.80;63.30
7512;DHT22;9999;48.780;9.146;2023-07-08T08:55:53;27.80;65.00
7512;DHT22;9999;48.780;9.146;2023-07-08T08:58:30;27.60;64.50
7512;DHT22;9999;48.780;9.146;2023-07-08T09:01:01;27.70;65.20
7512;DHT22;9999;48.780;9.146;2023-07-08T09:03:38;28.20;66.30
7512;DHT22;9999;48.780;9.146;2023-07-08T09:06:14;28.70;61.80
7512;DHT22;9999;48.780;9.146;2023-07-08T09:08:43;28.50;63.50
7512;DHT22;9999;48.780;9.146;2023-07-08T09:13:57;28.90;61.00
7512;DHT22;9999;48.780;9.146;2023-07-08T09:16:39;29.10;62.90
7512;DHT22;9999;48.780;9.146;2023-07-08T09:19:11;29.20;60.10
7512;DHT22;9999;48.780;9.146;2023-07-08T09:21:43;29.30;59.40
7512;DHT22;9999;48.780;9.146;2023-07-08T09:24:16;29.10;59.80
7512;DHT22;9999;48.780;9.146;2023-07-08T09:26:45;29.30;58.90
7512;DHT22;9999;48.780;9.146;2023-07-08T09:29:13;29.20;57.30
7512;DHT22;9999;48.780;9.146;2023-07-08T09:31:41;29.30;60.00
7512;DHT22;9999;48.780;9.146;2023-07-08T09:34:11;29.80;57.80
7512;DHT22;9999;48.780;9.146;2023-07-08T09:36:40;29.90;58.80
7512;DHT22;9999;48.780;9.146;2023-07-08T09:39:12;30.10;55.90
7512;DHT22;9999;48.780;9.146;2023-07-08T09:41:41;29.90;55.60
7512;DHT22;9999;48.780;9.146;2023-07-08T09:44:17;29.30;56.20
7512;DHT22;9999;48.780;9.146;2023-07-08T09:46:49;29.70;58.50
7512;DHT22;9999;48.780;9.146;2023-07-08T09:49:19;30.30;56.60
7512;DHT22;9999;48.780;9.146;2023-07-08T09:51:46;30.60;56.80
7512;DHT22;9999;48.780;9.146;2023-07-08T09:54:16;30.70;57.30
7512;DHT22;9999;48.780;9.146;2023-07-08T09:56:45;30.80;56.90
7512;DHT22;9999;48.780;9.146;2023-07-08T09:59:15;30.80;56.90
7512;DHT22;9999;48.780;9.146;2023-07-08T10:01:42;30.10;55.70
7512;DHT22;9999;48.780;9.146;2023-07-08T10:04:11;30.10;56.10
7512;DHT22;9999;48.780;9.146;2023-07-08T10:06:38;30.30;56.20
7512;DHT22;9999;48.780;9.146;2023-07-08T10:09:10;30.80;56.20
7512;DHT22;9999;48.780;9.146;2023-07-08T10:11:42;30.40;55.40
7512;DHT22;9999;48.780;9.146;2023-07-08T10:14:13;30.00;55.40
7512;DHT22;9999;48.780;9.146;2023-07-08T10:16:44;29.50;56.70
7512;DHT22;9999;48.780;9.146;2023-07-08T10:19:15;29.20;59.30
7512;DHT22;9999;48.780;9.146;2023-07-08T10:21:48;28.60;57.40
7512;DHT22;9999;48.780;9.146;2023-07-08T10:24:29;28.60;58.80
7512;DHT22;9999;48.780;9.146;2023-07-08T10:27:07;28.60;60.10
7512;DHT22;9999;48.780;9.146;2023-07-08T10:29:45;28.40;59.90
7512;DHT22;9999;48.780;9.146;2023-07-08T10:32:21;28.50;59.80
7512;DHT22;9999;48.780;9.146;2023-07-08T10:34:57;29.00;61.40
7512;DHT22;9999;48.780;9.146;2023-07-08T10:37:31;29.40;58.90
7512;DHT22;9999;48.780;9.146;2023-07-08T10:40:21;29.30;60.90
7512;DHT22;9999;48.780;9.146;2023-07-08T10:43:03;29.70;60.90
7512;DHT22;9999;48.780;9.146;2023-07-08T10:45:39;30.10;59.10
7512;DHT22;9999;48.780;9.146;2023-07-08T10:48:24;30.40;59.80
7512;DHT22;9999;48.780;9.146;2023-07-08T10:51:12;30.30;57.90
7512;DHT22;9999;48.780;9.146;2023-07-08T10:54:01;30.40;60.70
7512;DHT22;9999;48.780;9.146;2023-07-08T10:56:37;30.90;58.00
7512;DHT22;9999;48.780;9.146;2023-07-08T10:59:26;30.70;56.10
7512;DHT22;9999;48.780;9.146;2023-07-08T11:02:23;30.80;56.00
7512;DHT22;9999;48.780;9.146;2023-07-08T11:05:02;30.90;56.60
7512;DHT22;9999;48.780;9.146;2023-07-08T11:07:38;31.00;56.40
7512;DHT22;9999;48.780;9.146;2023-07-08T11:10:12;31.30;56.30
7512;DHT22;9999;48.780;9.146;2023-07-08T11:12:43;31.30;56.60
7512;DHT22;9999;48.780;9.146;2023-07-08T11:15:17;31.30;55.90
7512;DHT22;9999;48.780;9.146;2023-07-08T11:17:49;31.00;55.80
7512;DHT22;9999;48.780;9.146;2023-07-08T11:20:19;30.70;56.30
7512;DHT22;9999;48.780;9.146;2023-07-08T11:22:51;30.30;56.00
7512;DHT22;9999;48.780;9.146;2023-07-08T11:25:20;29.80;56.50
7512;DHT22;9999;48.780;9.146;2023-07-08T11:27:52;29.40;57.30
7512;DHT22;9999;48.780;9.146;2023-07-08T11:30:22;29.50;59.10
7512;DHT22;9999;48.780;9.146;2023-07-08T11:32:57;29.40;58.20
7512;DHT22;9999;48.780;9.146;2023-07-08T11:35:32;29.60;58.10
7512;DHT22;9999;48.780;9.146;2023-07-08T11:38:01;29.90;60.10
7512;DHT22;9999;48.780;9.146;2023-07-08T11:40:29;29.80;57.60
7512;DHT22;9999;48.780;9.146;2023-07-08T11:43:02;29.40;57.70
7512;DHT22;9999;48.780;9.146;2023-07-08T11:45:37;29.50;58.90
7512;DHT22;9999;48.780;9.146;2023-07-08T11:48:10;29.80;59.40
7512;DHT22;9999;48.780;9.146;2023-07-08T11:50:41;30.10;58.70
7512;DHT22;9999;48.780;9.146;2023-07-08T11:53:12;30.60;57.60
7512;DHT22;9999;48.780;9.146;2023-07-08T11:55:43;30.60;58.40
7512;DHT22;9999;48.780;9.146;2023-07-08T11:58:20;30.70;57.20
7512;DHT22;9999;48.780;9.146;2023-07-08T12:00:54;30.80;56.70
7512;DHT22;9999;48.780;9.146;2023-07-08T12:03:32;31.10;56.80
7512;DHT22;9999;48.780;9.146;2023-07-08T12:06:00;31.40;54.60
7512;DHT22;9999;48.780;9.146;2023-07-08T12:08:36;31.60;56.20
7512;DHT22;9999;48.780;9.146;2023-07-08T12:11:11;31.70;56.20
7512;DHT22;9999;48.780;9.146;2023-07-08T12:13:38;31.90;54.70
7512;DHT22;9999;48.780;9.146;2023-07-08T12:16:09;31.80;54.90
7512;DHT22;9999;48.780;9.146;2023-07-08T12:18:39;32.10;53.60
7512;DHT22;9999;48.780;9.146;2023-07-08T12:21:11;32.40;54.20
7512;DHT22;9999;48.780;9.146;2023-07-08T12:23:46;32.10;54.50
7512;DHT22;9999;48.780;9.146;2023-07-08T12:26:13;32.30;53.50
7512;DHT22;9999;48.780;9.146;2023-07-08T12:28:42;32.40;53.30
7512;DHT22;9999;48.780;9.146;2023-07-08T12:31:14;32.40;53.90
7512;DHT22;9999;48.780;9.146;2023-07-08T12:33:41;32.70;53.80
7512;DHT22;9999;48.780;9.146;2023-07-08T12:36:11;32.70;52.90
7512;DHT22;9999;48.780;9.146;2023-07-08T12:38:41;32.70;52.90
7512;DHT22;9999;48.780;9.146;2023-07-08T12:41:14;32.60;52.60
7512;DHT22;9999;48.780;9.146;2023-07-08T12:43:43;32.60;52.80
7512;DHT22;9999;48.780;9.146;2023-07-08T12:46:11;32.70;51.40
7512;DHT22;9999;48.780;9.146;2023-07-08T12:48:39;32.70;53.50
7512;DHT22;9999;48.780;9.146;2023-07-08T12:51:10;33.00;54.10
7512;DHT22;9999;48.780;9.146;2023-07-08T12:53:38;33.00;51.50
7512;DHT22;9999;48.780;9.146;2023-07-08T12:56:05;32.90;50.80
7512;DHT22;9999;48.780;9.146;2023-07-08T12:58:37;33.00;51.30
7512;DHT22;9999;48.780;9.146;2023-07-08T13:01:06;33.10;50.70
7512;DHT22;9999;48.780;9.146;2023-07-08T13:03:35;33.30;50.30
7512;DHT22;9999;48.780;9.146;2023-07-08T13:06:03;33.50;50.40
7512;DHT22;9999;48.780;9.146;2023-07-08T13:08:34;33.50;50.10
7512;DHT22;9999;48.780;9.146;2023-07-08T13:11:03;33.30;49.20
7512;DHT22;9999;48.780;9.146;2023-07-08T13:13:34;33.30;49.70
7512;DHT22;9999;48.780;9.146;2023-07-08T13:16:02;33.10;50.40
7512;DHT22;9999;48.780;9.146;2023-07-08T13:18:33;33.10;50.80
7512;DHT22;9999;48.780;9.146;2023-07-08T13:21:00;33.00;49.00
7512;DHT22;9999;48.780;9.146;2023-07-08T13:23:28;33.00;51.10
7512;DHT22;9999;48.780;9.146;2023-07-08T13:25:55;33.20;51.10
7512;DHT22;9999;48.780;9.146;2023-07-08T13:28:25;33.30;48.90
7512;DHT22;9999;48.780;9.146;2023-07-08T13:30:55;33.10;52.10
7512;DHT22;9999;48.780;9.146;2023-07-08T13:33:23;33.20;49.50
7512;DHT22;9999;48.780;9.146;2023-07-08T13:35:51;33.20;50.00
7512;DHT22;9999;48.780;9.146;2023-07-08T13:38:19;33.20;49.70
7512;DHT22;9999;48.780;9.146;2023-07-08T13:40:49;33.30;49.10
7512;DHT22;9999;48.780;9.146;2023-07-08T13:43:23;33.50;49.40
7512;DHT22;9999;48.780;9.146;2023-07-08T13:45:50;33.70;49.00
7512;DHT22;9999;48.780;9.146;2023-07-08T13:48:24;33.30;47.60
7512;DHT22;9999;48.780;9.146;2023-07-08T13:50:57;32.80;46.90
7512;DHT22;9999;48.780;9.146;2023-07-08T13:53:26;32.60;47.50
7512;DHT22;9999;48.780;9.146;2023-07-08T13:55:58;32.80;48.50
7512;DHT22;9999;48.780;9.146;2023-07-08T13:58:27;33.20;47.30
7512;DHT22;9999;48.780;9.146;2023-07-08T14:00:55;33.30;45.80
7512;DHT22;9999;48.780;9.146;2023-07-08T14:03:23;32.80;45.70
7512;DHT22;9999;48.780;9.146;2023-07-08T14:05:51;32.60;46.60
7512;DHT22;9999;48.780;9.146;2023-07-08T14:08:17;32.70;47.50
7512;DHT22;9999;48.780;9.146;2023-07-08T14:10:44;32.90;45.90
7512;DHT22;9999;48.780;9.146;2023-07-08T14:13:11;33.00;47.20
7512;DHT22;9999;48.780;9.146;2023-07-08T14:15:39;33.20;47.70
7512;DHT22;9999;48.780;9.146;2023-07-08T14:18:07;33.40;47.70
7512;DHT22;9999;48.780;9.146;2023-07-08T14:20:38;33.30;47.60
7512;DHT22;9999;48.780;9.146;2023-07-08T14:23:04;33.20;46.50
7512;DHT22;9999;48.780;9.146;2023-07-08T14:25:31;33.00;48.70
7512;DHT22;9999;48.780;9.146;2023-07-08T14:27:58;32.90;48.40
7512;DHT22;9999;48.780;9.146;2023-07-08T14:30:25;33.00;49.10
7512;DHT22;9999;48.780;9.146;2023-07-08T14:32:51;33.10;49.10
7512;DHT22;9999;48.780;9.146;2023-07-08T14:35:22;33.00;49.10
7512;DHT22;9999;48.780;9.146;2023-07-08T14:37:51;33.00;48.30
7512;DHT22;9999;48.780;9.146;2023-07-08T14:40:22;33.00;47.90
7512;DHT22;9999;48.780;9.146;2023-07-08T14:42:54;33.10;48.20
7512;DHT22;9999;48.780;9.146;2023-07-08T14:45:22;33.10;48.90
7512;DHT22;9999;48.780;9.146;2023-07-08T14:47:49;33.10;47.60
7512;DHT22;9999;48.780;9.146;2023-07-08T14:50:16;33.10;48.00
7512;DHT22;9999;48.780;9.146;2023-07-08T14:52:43;33.30;48.00
7512;DHT22;9999;48.780;9.146;2023-07-08T14:55:11;33.20;47.30
7512;DHT22;9999;48.780;9.146;2023-07-08T14:57:43;33.30;47.80
7512;DHT22;9999;48.780;9.146;2023-07-08T15:00:13;33.10;47.20
7512;DHT22;9999;48.780;9.146;2023-07-08T15:02:41;33.10;46.80
7512;DHT22;9999;48.780;9.146;2023-07-08T15:05:14;33.30;47.20
7512;DHT22;9999;48.780;9.146;2023-07-08T15:07:41;33.30;47.80
7512;DHT22;9999;48.780;9.146;2023-07-08T15:10:09;33.40;47.50
7512;DHT22;9999;48.780;9.146;2023-07-08T15:12:37;33.40;46.50
7512;DHT22;9999;48.780;9.146;2023-07-08T15:15:05;33.40;47.70
7512;DHT22;9999;48.780;9.146;2023-07-08T15:17:32;33.30;46.70
7512;DHT22;9999;48.780;9.146;2023-07-08T15:19:58;33.20;46.30
7512;DHT22;9999;48.780;9.146;2023-07-08T15:22:26;33.20;49.00
7512;DHT22;9999;48.780;9.146;2023-07-08T15:24:53;33.30;47.90
7512;DHT22;9999;48.780;9.146;2023-07-08T15:27:21;33.10;46.10
7512;DHT22;9999;48.780;9.146;2023-07-08T15:29:50;33.00;47.60
7512;DHT22;9999;48.780;9.146;2023-07-08T15:32:16;32.70;48.40
7512;DHT22;9999;48.780;9.146;2023-07-08T15:34:46;32.70;48.20
7512;DHT22;9999;48.780;9.146;2023-07-08T15:37:12;32.80;48.00
7512;DHT22;9999;48.780;9.146;2023-07-08T15:39:39;32.70;47.30
7512;DHT22;9999;48.780;9.146;2023-07-08T15:42:10;32.60;47.90
7512;DHT22;9999;48.780;9.146;2023-07-08T15:44:38;32.80;48.20
7512;DHT22;9999;48.780;9.146;2023-07-08T15:47:12;33.00;49.80
7512;DHT22;9999;48.780;9.146;2023-07-08T15:49:39;33.20;47.90
7512;DHT22;9999;48.780;9.146;2023-07-08T15:52:07;33.00;48.00
7512;DHT22;9999;48.780;9.146;2023-07-08T15:54:37;32.90;48.50
7512;DHT22;9999;48.780;9.146;2023-07-08T15:57:04;32.80;47.60
7512;DHT22;9999;48.780;9.146;2023-07-08T15:59:33;32.80;47.50
7512;DHT22;9999;48.780;9.146;2023-07-08T16:02:14;32.60;46.70
7512;DHT22;9999;48.780;9.146;2023-07-08T16:04:42;32.50;47.60
7512;DHT22;9999;48.780;9.146;2023-07-08T16:07:09;32.50;46.90
7512;DHT22;9999;48.780;9.146;2023-07-08T16:09:36;32.50;47.10
7512;DHT22;9999;48.780;9.146;2023-07-08T16:12:03;32.40;46.50
7512;DHT22;9999;48.780;9.146;2023-07-08T16:14:31;32.50;46.90
7512;DHT22;9999;48.780;9.146;2023-07-08T16:16:58;32.60;47.80
7512;DHT22;9999;48.780;9.146;2023-07-08T16:19:26;32.60;47.30